Time;durP1;ratioP1;P1;durP2;ratioP2;P2;SDS_P1;SDS_P2;PMS_P1;PMS_P2;Temp;Humidity;BMP_temperature;BMP_pressure;BME280_temperature;BME280_humidity;BME280_pressure;Samples;Min_cycle;Max_cycle;Signal;HPM_P1;HPM_P2
2021/12/22 00:00:25;;;;;;;30.05;17.75;;;;;;;-5.10;100.00;93510.25;2094785;28;20455;-85
2021/12/22 00:01:27;;;;;;;28.35;16.83;;;;;;;-5.07;100.00;93496.63;2098546;28;20471;-88
2021/12/22 00:02:31;;;;;;;34.78;19.25;;;;;;;-5.14;100.00;93499.66;2093256;28;20463;-86
2021/12/22 00:03:32;;;;;;;32.03;17.17;;;;;;;-5.17;100.00;93508.13;2090894;28;20447;-87
2021/12/22 00:04:39;;;;;;;35.13;18.13;;;;;;;-5.20;100.00;93497.53;2090272;28;20443;-86
2021/12/22 00:05:43;;;;;;;29.10;16.85;;;;;;;-5.11;100.00;93508.72;2083637;28;21291;-86
2021/12/22 00:06:46;;;;;;;32.42;18.33;;;;;;;-5.08;100.00;93505.50;2091175;28;20446;-88
2021/12/22 00:07:48;;;;;;;26.92;16.77;;;;;;;-5.16;100.00;93501.84;2089981;28;21018;-86
2021/12/22 00:08:49;;;;;;;33.45;17.50;;;;;;;-5.26;100.00;93498.78;2089806;28;20450;-85
2021/12/22 00:09:50;;;;;;;30.60;17.95;;;;;;;-5.27;100.00;93505.03;2090362;28;20493;-86
2021/12/22 00:10:51;;;;;;;32.38;17.98;;;;;;;-5.23;100.00;93496.31;2098550;28;20503;-85
2021/12/22 00:11:52;;;;;;;29.63;17.23;;;;;;;-5.12;100.00;93494.94;2098560;28;20025;-87
2021/12/22 00:12:53;;;;;;;30.10;18.63;;;;;;;-5.17;100.00;93500.31;2090385;28;20033;-86
2021/12/22 00:14:15;;;;;;;29.90;16.48;;;;;;;-5.18;100.00;93505.81;2090044;28;20804;-85
2021/12/22 00:15:17;;;;;;;26.48;15.48;;;;;;;-5.26;100.00;93494.34;2095670;28;20423;-84
2021/12/22 00:16:18;;;;;;;31.85;16.75;;;;;;;-5.32;100.00;93498.16;2098545;28;20431;-86
2021/12/22 00:17:19;;;;;;;26.60;16.23;;;;;;;-5.31;100.00;93502.31;2098302;28;20439;-85
2021/12/22 00:18:20;;;;;;;28.90;15.82;;;;;;;-5.28;100.00;93504.28;2090207;28;20439;-87
2021/12/22 00:19:21;;;;;;;29.98;16.52;;;;;;;-5.23;100.00;93496.31;2098092;28;20029;-87
2021/12/22 00:20:22;;;;;;;28.40;17.70;;;;;;;-5.18;100.00;93495.38;2098569;28;20044;-86
2021/12/22 00:21:23;;;;;;;30.17;18.20;;;;;;;-5.30;100.00;93498.63;2093447;28;20529;-86
2021/12/22 00:22:24;;;;;;;31.73;17.13;;;;;;;-5.25;100.00;93511.50;2078400;28;21204;-85
2021/12/22 00:23:25;;;;;;;31.33;17.55;;;;;;;-5.36;100.00;93507.66;2081896;28;20470;-86
2021/12/22 00:24:26;;;;;;;25.23;16.20;;;;;;;-5.29;100.00;93507.97;2090825;28;20478;-86
2021/12/22 00:25:27;;;;;;;32.05;17.75;;;;;;;-5.33;100.00;93507.81;2098672;28;20760;-86
2021/12/22 00:26:28;;;;;;;29.88;18.15;;;;;;;-5.29;100.00;93507.97;2090254;28;20435;-86
2021/12/22 00:27:29;;;;;;;31.23;18.52;;;;;;;-5.38;100.00;93504.59;2083587;28;20480;-86
2021/12/22 00:28:32;;;;;;;30.90;18.02;;;;;;;-5.42;100.00;93501.81;2097458;28;20029;-84
2021/12/22 00:29:34;;;;;;;37.78;19.15;;;;;;;-5.38;100.00;93507.97;2113554;28;20438;-88
2021/12/22 00:30:37;;;;;;;30.83;18.13;;;;;;;-5.44;100.00;93505.81;2098552;28;20557;-86
2021/12/22 00:31:44;;;;;;;37.35;17.35;;;;;;;-5.36;100.00;93507.66;2082378;28;20448;-87
2021/12/22 00:32:52;;;;;;;36.60;18.35;;;;;;;-5.32;100.00;93508.56;2083699;28;20483;-86
2021/12/22 00:33:55;;;;;;;31.33;17.88;;;;;;;-5.33;100.00;93504.44;2091851;28;20431;-86
2021/12/22 00:34:56;;;;;;;32.45;17.27;;;;;;;-5.26;100.00;93509.19;2106516;28;20443;-86
2021/12/22 00:35:57;;;;;;;32.55;18.58;;;;;;;-5.41;100.00;93505.19;2101259;28;20454;-87
2021/12/22 00:36:58;;;;;;;36.70;18.13;;;;;;;-5.35;100.00;93509.19;2089911;28;21279;-85
2021/12/22 00:37:59;;;;;;;29.52;17.52;;;;;;;-5.33;100.00;93517.47;2081662;28;20443;-87
2021/12/22 00:39:00;;;;;;;33.08;19.63;;;;;;;-5.33;100.00;93510.41;2090019;28;20488;-86
2021/12/22 00:40:05;;;;;;;29.02;16.25;;;;;;;-5.35;100.00;93511.81;2090032;28;20116;-87
2021/12/22 00:41:06;;;;;;;32.83;18.80;;;;;;;-5.44;100.00;93511.78;2082797;28;20448;-86
2021/12/22 00:42:07;;;;;;;35.55;18.65;;;;;;;-5.33;100.00;93514.84;2090034;28;21211;-86
2021/12/22 00:43:09;;;;;;;29.02;16.80;;;;;;;-5.19;100.00;93514.69;2098353;28;20441;-84
2021/12/22 00:44:12;;;;;;;34.00;18.42;;;;;;;-5.32;100.00;93517.16;2090227;28;20476;-87
2021/12/22 00:45:23;;;;;;;35.35;18.17;;;;;;;-5.33;100.00;93520.06;2090566;28;20446;-86
2021/12/22 00:46:24;;;;;;;31.92;18.27;;;;;;;-5.36;100.00;93526.63;2092975;28;20803;-85
2021/12/22 00:47:31;;;;;;;33.60;18.70;;;;;;;-5.21;100.00;93512.41;2091217;28;20443;-86
2021/12/22 00:48:32;;;;;;;30.17;17.48;;;;;;;-5.21;100.00;93516.88;2084634;28;20447;-84
2021/12/22 00:49:33;;;;;;;37.75;17.70;;;;;;;-5.38;100.00;93505.34;2089872;28;20535;-89
2021/12/22 00:50:36;;;;;;;30.80;18.13;;;;;;;-5.38;100.00;93515.00;2090693;28;20578;-87
2021/12/22 00:51:37;;;;;;;30.25;17.80;;;;;;;-5.45;100.00;93517.28;2083421;28;20991;-85
2021/12/22 00:52:39;;;;;;;31.23;17.35;;;;;;;-5.39;100.00;93518.69;2085417;28;20456;-86
2021/12/22 00:53:40;;;;;;;29.17;16.95;;;;;;;-5.43;100.00;93525.59;2079974;28;20072;-85
2021/12/22 00:54:41;;;;;;;35.17;18.15;;;;;;;-5.47;100.00;93519.44;2097822;28;20530;-86
2021/12/22 00:55:49;;;;;;;32.80;18.88;;;;;;;-5.46;100.00;93528.78;2101015;28;20444;-85
2021/12/22 00:56:50;;;;;;;33.47;18.58;;;;;;;-5.39;100.00;93535.09;2090718;28;20447;-88
2021/12/22 00:57:51;;;;;;;32.97;18.92;;;;;;;-5.38;100.00;93528.78;2081657;28;20444;-87
2021/12/22 00:58:52;;;;;;;31.88;17.63;;;;;;;-5.23;100.00;93516.38;2081667;28;20881;-85
2021/12/22 00:59:53;;;;;;;33.13;18.70;;;;;;;-5.32;100.00;93524.19;2089778;28;20463;-86
2021/12/22 01:00:54;;;;;;;30.38;18.42;;;;;;;-5.38;100.00;93528.03;2089490;28;20498;-86
2021/12/22 01:01:55;;;;;;;32.10;19.50;;;;;;;-5.50;100.00;93518.22;2097741;28;20446;-88
2021/12/22 01:02:57;;;;;;;32.22;18.70;;;;;;;-5.41;100.00;93515.63;2089741;28;20455;-86
2021/12/22 01:04:02;;;;;;;33.08;18.10;;;;;;;-5.42;100.00;93520.06;2097104;28;20024;-86
2021/12/22 01:05:03;;;;;;;30.20;17.98;;;;;;;-5.34;100.00;93518.53;2092212;28;21026;-88
2021/12/22 01:06:05;;;;;;;34.80;18.55;;;;;;;-5.30;100.00;93519.47;2081623;28;20463;-87
2021/12/22 01:07:06;;;;;;;34.58;20.02;;;;;;;-5.37;100.00;93513.94;2081433;28;20440;-89
2021/12/22 01:08:07;;;;;;;35.75;19.77;;;;;;;-5.34;100.00;93514.09;2088015;28;20451;-87
2021/12/22 01:09:08;;;;;;;35.35;19.08;;;;;;;-5.40;100.00;93510.13;2089565;28;20460;-85
2021/12/22 01:10:10;;;;;;;39.30;18.50;;;;;;;-5.45;100.00;93512.84;2089673;28;20556;-86
2021/12/22 01:11:11;;;;;;;31.23;17.75;;;;;;;-5.38;100.00;93507.19;2106164;28;20035;-87
2021/12/22 01:12:13;;;;;;;35.78;19.20;;;;;;;-5.38;100.00;93518.38;2105977;28;21055;-86
2021/12/22 01:13:44;;;;;;;36.10;20.90;;;;;;;-5.46;100.00;93506.09;2089640;28;20678;-89
2021/12/22 01:14:45;;;;;;;32.88;17.65;;;;;;;-5.48;100.00;93510.88;2089924;28;20544;-87
2021/12/22 01:15:47;;;;;;;38.80;20.35;;;;;;;-5.41;100.00;93513.78;2081054;28;20844;-88
2021/12/22 01:16:51;;;;;;;34.88;19.02;;;;;;;-5.42;100.00;93519.28;2076237;28;20045;-89
2021/12/22 01:18:56;;;;;;;30.75;16.67;;;;;;;-5.29;100.00;93513.16;2082125;28;20996;-85
2021/12/22 01:19:34;;;;;;;30.65;17.20;;;;;;;-5.32;100.00;93514.53;2077071;28;20640;-88
2021/12/22 01:20:50;;;;;;;31.95;17.88;;;;;;;-5.32;100.00;93504.13;2090902;28;20574;-87
2021/12/22 01:22:08;;;;;;;31.45;17.02;;;;;;;-5.27;100.00;93508.41;2099921;28;20798;-87
2021/12/22 01:23:10;;;;;;;32.58;17.50;;;;;;;-5.27;100.00;93492.78;2089573;28;20474;-88
2021/12/22 01:24:21;;;;;;;34.20;17.50;;;;;;;-5.42;100.00;93499.22;2084444;28;20471;-87
2021/12/22 01:25:24;;;;;;;35.05;17.73;;;;;;;-5.35;100.00;93498.78;2099187;28;20450;-88
2021/12/22 01:26:30;;;;;;;32.67;18.35;;;;;;;-5.29;100.00;93500.16;2098041;28;20525;-87
2021/12/22 01:27:39;;;;;;;29.35;17.20;;;;;;;-5.23;100.00;93493.69;2098499;28;20442;-88
2021/12/22 01:29:30;;;;;;;33.88;18.45;;;;;;;-5.18;100.00;93498.00;2099100;28;20978;-86
2021/12/22 01:30:32;;;;;;;29.33;15.98;;;;;;;-5.29;100.00;93494.19;2095681;28;20878;-87
2021/12/22 01:31:33;;;;;;;32.08;18.05;;;;;;;-5.30;100.00;93503.84;2081531;28;20510;-85
2021/12/22 01:32:35;;;;;;;33.65;17.98;;;;;;;-5.27;100.00;93503.19;2089517;28;20432;-86
2021/12/22 01:33:35;;;;;;;33.13;19.70;;;;;;;-5.40;100.00;93502.31;2097803;28;20021;-85
2021/12/22 01:34:36;;;;;;;34.85;19.15;;;;;;;-5.30;100.00;93497.84;2089346;28;20451;-87
2021/12/22 01:35:39;;;;;;;30.63;18.20;;;;;;;-5.39;100.00;93505.66;2088703;28;20112;-85
2021/12/22 01:36:40;;;;;;;27.23;17.40;;;;;;;-5.37;100.00;93503.50;2096369;28;20055;-87
2021/12/22 01:37:41;;;;;;;31.70;17.92;;;;;;;-5.36;100.00;93507.66;2087764;28;20494;-85
2021/12/22 01:38:42;;;;;;;30.02;17.17;;;;;;;-5.33;100.00;93504.44;2096165;28;20489;-86
2021/12/22 01:39:43;;;;;;;34.08;18.70;;;;;;;-5.41;100.00;93507.78;2096373;28;20443;-86
2021/12/22 01:40:46;;;;;;;34.00;18.48;;;;;;;-5.35;100.00;93507.34;2104541;28;20877;-86
2021/12/22 01:41:48;;;;;;;37.72;18.67;;;;;;;-5.37;100.00;93514.69;2095661;28;20438;-86
2021/12/22 01:42:55;;;;;;;34.10;17.80;;;;;;;-5.33;100.00;93505.19;2096572;28;20894;-85
2021/12/22 01:54:46;;;;;;;26.27;12.85;;;;;;;-5.61;100.00;93537.81;2071598;28;20853;-86
2021/12/22 01:56:24;;;;;;;25.92;13.07;;;;;;;-5.51;100.00;93531.53;2094854;28;21026;-87
2021/12/22 01:57:27;;;;;;;20.20;12.73;;;;;;;-5.63;100.00;93543.31;2094942;28;20533;-85
2021/12/22 01:58:34;;;;;;;28.02;16.10;;;;;;;-5.62;100.00;93533.66;2096046;28;20510;-86
2021/12/22 01:59:41;;;;;;;28.50;16.85;;;;;;;-5.57;100.00;93530.94;2089369;28;20818;-87
2021/12/22 02:00:42;;;;;;;30.38;17.52;;;;;;;-5.59;100.00;93538.25;2096666;28;20451;-87
2021/12/22 02:01:43;;;;;;;24.70;15.23;;;;;;;-5.76;100.00;93538.22;2087255;28;20497;-87
2021/12/22 02:02:44;;;;;;;29.67;17.85;;;;;;;-5.67;100.00;93531.97;2088410;28;20020;-86
2021/12/22 02:03:48;;;;;;;35.65;19.52;;;;;;;-5.64;100.00;93533.19;2104458;28;20474;-85
2021/12/22 02:04:49;;;;;;;34.88;19.58;;;;;;;-5.66;100.00;93528.31;2095898;28;20465;-85
2021/12/22 02:05:50;;;;;;;36.08;19.15;;;;;;;-5.57;100.00;93536.91;2104419;28;20450;-87
2021/12/22 02:06:51;;;;;;;30.85;19.17;;;;;;;-5.66;100.00;93541.31;2104430;28;20437;-85
2021/12/22 02:07:56;;;;;;;30.70;17.90;;;;;;;-5.66;100.00;93530.91;2104393;28;20038;-87
2021/12/22 02:08:59;;;;;;;34.47;19.10;;;;;;;-5.83;100.00;93533.47;2096753;28;20822;-85
2021/12/22 02:11:10;;;;;;;27.83;16.10;;;;;;;-5.67;100.00;93536.41;2097809;28;20443;-87
2021/12/22 02:12:13;;;;;;;28.58;18.08;;;;;;;-5.74;100.00;93525.69;2112926;28;20075;-86
2021/12/22 02:13:20;;;;;;;32.10;18.35;;;;;;;-5.66;100.00;93530.16;2104189;28;20454;-86
2021/12/22 02:14:21;;;;;;;27.15;16.58;;;;;;;-5.65;100.00;93535.03;2081638;28;20510;-86
2021/12/22 02:15:22;;;;;;;27.13;16.98;;;;;;;-5.63;100.00;93526.91;2079483;28;20443;-87
2021/12/22 02:16:28;;;;;;;30.02;18.35;;;;;;;-5.78;100.00;93522.16;2083934;28;20486;-86
2021/12/22 02:17:29;;;;;;;29.50;18.33;;;;;;;-5.63;100.00;93511.28;2093509;28;20836;-85
2021/12/22 02:18:31;;;;;;;26.25;16.35;;;;;;;-5.65;100.00;93516.81;2097175;28;20463;-85
2021/12/22 02:19:41;;;;;;;34.30;18.80;;;;;;;-5.61;100.00;93519.59;2098186;28;20033;-86
2021/12/22 02:20:42;;;;;;;30.40;18.23;;;;;;;-5.59;100.00;93507.00;2096795;28;20451;-85
2021/12/22 02:21:50;;;;;;;32.13;19.23;;;;;;;-5.70;100.00;93511.75;2086812;28;20025;-87
2021/12/22 02:22:54;;;;;;;29.80;17.60;;;;;;;-5.62;100.00;93507.63;2088859;28;20074;-87
2021/12/22 02:23:56;;;;;;;34.95;17.95;;;;;;;-5.66;100.00;93517.13;2095593;28;20501;-86
2021/12/22 02:25:09;;;;;;;30.13;18.30;;;;;;;-5.64;100.00;93507.94;2079669;28;20535;-85
2021/12/22 02:27:23;;;;;;;30.08;17.50;;;;;;;-5.59;100.00;93517.44;2096222;28;20477;-87
2021/12/22 02:27:53;;;;;;;32.13;16.83;;;;;;;-5.66;100.00;93520.50;2085703;28;20450;-86
2021/12/22 02:29:18;;;;;;;29.65;15.93;;;;;;;-5.68;100.00;93525.22;2080970;28;20455;-86
2021/12/22 02:30:26;;;;;;;26.85;15.00;;;;;;;-5.70;100.00;93524.78;2094387;28;20989;-88
2021/12/22 02:31:44;;;;;;;27.38;16.20;;;;;;;-5.70;100.00;93521.41;2093579;28;20459;-85
2021/12/22 02:33:09;;;;;;;30.48;15.98;;;;;;;-5.51;100.00;93523.72;2093054;28;20546;-87
2021/12/22 02:34:16;;;;;;;28.65;16.13;;;;;;;-5.62;100.00;93524.03;2089697;28;20537;-87
2021/12/22 02:36:09;;;;;;;29.92;16.83;;;;;;;-5.69;100.00;93526.31;2081450;28;20460;-87
2021/12/22 02:36:44;;;;;;;32.25;17.10;;;;;;;-5.59;100.00;93515.59;2083983;28;20435;-87
2021/12/22 02:37:49;;;;;;;34.20;18.02;;;;;;;-5.64;100.00;93518.34;2088240;28;20671;-87
2021/12/22 02:38:56;;;;;;;27.60;17.00;;;;;;;-5.54;100.00;93521.72;2088819;28;20459;-85
2021/12/22 02:40:11;;;;;;;33.67;18.40;;;;;;;-5.37;100.00;93519.91;2073055;28;21019;-88
2021/12/22 02:41:14;;;;;;;31.02;16.80;;;;;;;-5.56;100.00;93514.22;2089660;28;20483;-87
2021/12/22 02:42:19;;;;;;;30.95;18.88;;;;;;;-5.55;100.00;93512.38;2087947;28;20459;-86
2021/12/22 02:43:23;;;;;;;29.63;17.77;;;;;;;-5.59;100.00;93518.19;2096874;28;20493;-86
2021/12/22 02:44:24;;;;;;;32.60;17.48;;;;;;;-5.57;100.00;93510.88;2096067;28;20451;-86
2021/12/22 02:45:25;;;;;;;29.90;17.48;;;;;;;-5.42;100.00;93512.25;2087927;28;21149;-87
2021/12/22 02:46:32;;;;;;;30.33;17.98;;;;;;;-5.47;100.00;93509.03;2104032;28;20020;-86
2021/12/22 02:47:34;;;;;;;29.48;17.70;;;;;;;-5.45;100.00;93514.69;2096250;28;20507;-87
2021/12/22 02:48:35;;;;;;;30.98;18.02;;;;;;;-5.44;100.00;93505.81;2079709;28;20459;-88
2021/12/22 02:49:37;;;;;;;28.52;16.80;;;;;;;-5.57;100.00;93510.88;2079643;28;20513;-89
2021/12/22 02:50:40;;;;;;;32.05;19.15;;;;;;;-5.55;100.00;93507.19;2087208;28;20529;-85
2021/12/22 02:51:41;;;;;;;32.08;17.80;;;;;;;-5.64;100.00;93499.34;2088150;28;20443;-86
2021/12/22 02:53:01;;;;;;;30.48;18.20;;;;;;;-5.46;100.00;93497.53;2096143;28;20446;-87
2021/12/22 02:54:18;;;;;;;30.02;17.92;;;;;;;-5.46;100.00;93497.53;2098865;28;20463;-87
2021/12/22 02:55:27;;;;;;;23.45;14.75;;;;;;;-5.52;100.00;93493.56;2090032;28;20505;-85
2021/12/22 02:56:37;;;;;;;27.42;16.48;;;;;;;-5.52;100.00;93488.34;2081698;28;21027;-86
2021/12/22 02:57:47;;;;;;;30.17;18.42;;;;;;;-5.75;100.00;93491.09;2089860;28;20443;-88
2021/12/22 03:00:48;;;;;;;29.45;17.02;;;;;;;-5.77;100.00;93493.22;2079796;28;20061;-85
2021/12/22 03:02:37;;;;;;;23.17;14.25;;;;;;;-5.79;100.00;93492.75;2100249;28;20489;-86
2021/12/22 03:03:55;;;;;;;29.02;17.52;;;;;;;-5.78;100.00;93496.88;2097530;28;20455;-86
2021/12/22 03:05:03;;;;;;;28.23;16.65;;;;;;;-5.88;100.00;93499.78;2088145;28;20450;-85
2021/12/22 03:06:10;;;;;;;31.50;17.08;;;;;;;-5.89;100.00;93504.19;2088788;28;20666;-87
2021/12/22 03:07:15;;;;;;;31.17;17.67;;;;;;;-5.79;100.00;93505.78;2089336;28;20936;-87
2021/12/22 03:08:23;;;;;;;31.02;17.55;;;;;;;-5.87;100.00;93507.28;2096454;28;20975;-86
2021/12/22 03:09:29;;;;;;;26.52;15.10;;;;;;;-5.78;100.00;93511.75;2100540;28;20885;-85
2021/12/22 03:10:31;;;;;;;29.35;18.88;;;;;;;-5.80;100.00;93519.84;2095491;28;21003;-87
2021/12/22 03:11:36;;;;;;;29.92;17.23;;;;;;;-5.77;100.00;93519.25;2083828;28;20538;-87
2021/12/22 03:12:39;;;;;;;30.67;18.63;;;;;;;-5.76;100.00;93517.41;2079992;28;20448;-86
2021/12/22 03:13:40;;;;;;;32.42;19.23;;;;;;;-5.75;100.00;93514.50;2080131;28;20459;-87
2021/12/22 03:14:41;;;;;;;26.60;16.00;;;;;;;-5.70;100.00;93514.38;2085205;28;20558;-86
2021/12/22 03:15:42;;;;;;;32.25;18.63;;;;;;;-5.84;100.00;93516.31;2090451;28;20973;-86
2021/12/22 03:16:44;;;;;;;30.33;17.60;;;;;;;-5.70;100.00;93516.19;2097281;28;20110;-86
2021/12/22 03:17:46;;;;;;;29.38;18.13;;;;;;;-5.84;100.00;93509.28;2089182;28;20513;-88
2021/12/22 03:18:48;;;;;;;30.77;17.52;;;;;;;-5.97;100.00;93512.81;2097436;28;20512;-87
2021/12/22 03:19:51;;;;;;;30.00;18.17;;;;;;;-5.85;100.00;93510.34;2105706;28;20499;-87
2021/12/22 03:21:01;;;;;;;30.27;18.77;;;;;;;-5.82;100.00;93514.19;2099306;28;21062;-85
2021/12/22 03:22:07;;;;;;;30.77;17.65;;;;;;;-5.77;100.00;93518.47;2103299;28;20507;-87
2021/12/22 03:23:10;;;;;;;29.40;17.05;;;;;;;-5.79;100.00;93524.00;2105772;28;20453;-87
2021/12/22 03:24:17;;;;;;;30.48;18.20;;;;;;;-5.80;100.00;93519.84;2095726;28;20478;-88
2021/12/22 03:25:21;;;;;;;33.67;17.55;;;;;;;-5.67;100.00;93526.75;2098274;28;20465;-88
2021/12/22 03:26:23;;;;;;;30.05;17.88;;;;;;;-5.71;100.00;93520.63;2097395;28;20458;-89
2021/12/22 03:27:24;;;;;;;31.52;17.70;;;;;;;-5.65;100.00;93526.47;2085289;28;20482;-86
2021/12/22 03:28:25;;;;;;;34.65;21.20;;;;;;;-5.92;100.00;93524.91;2081182;28;20995;-86
2021/12/22 03:29:26;;;;;;;32.42;17.52;;;;;;;-5.93;100.00;93511.09;2089120;28;20538;-85
2021/12/22 03:30:29;;;;;;;30.55;17.98;;;;;;;-5.85;100.00;93523.34;2101342;28;20506;-87
2021/12/22 03:31:34;;;;;;;34.47;18.73;;;;;;;-5.89;100.00;93524.25;2094554;28;20888;-85
2021/12/22 03:32:35;;;;;;;29.85;18.33;;;;;;;-5.90;100.00;93513.09;2097897;28;20435;-86
2021/12/22 03:33:39;;;;;;;29.65;18.17;;;;;;;-5.96;100.00;93516.16;2101369;28;20446;-85
2021/12/22 03:34:41;;;;;;;27.27;16.25;;;;;;;-5.88;100.00;93516.16;2093735;28;20388;-86
2021/12/22 03:35:42;;;;;;;31.02;18.33;;;;;;;-5.88;100.00;93512.78;2089316;28;20455;-86
2021/12/22 03:36:44;;;;;;;33.42;20.05;;;;;;;-5.97;100.00;93514.63;2097201;28;20478;-87
2021/12/22 03:37:49;;;;;;;33.83;19.95;;;;;;;-6.01;100.00;93513.69;2089425;28;20362;-85
2021/12/22 03:38:51;;;;;;;33.50;19.98;;;;;;;-5.84;100.00;93516.31;2089288;28;20442;-87
2021/12/22 03:39:59;;;;;;;32.67;19.02;;;;;;;-5.84;100.00;93516.31;2088953;28;21090;-86
2021/12/22 03:41:09;;;;;;;34.25;19.73;;;;;;;-5.98;100.00;93515.69;2091348;28;20961;-86
2021/12/22 03:42:16;;;;;;;33.70;19.55;;;;;;;-5.88;100.00;93518.00;2098677;28;20450;-85
2021/12/22 03:43:17;;;;;;;33.97;17.05;;;;;;;-5.96;100.00;93523.97;2094172;28;20043;-86
2021/12/22 03:44:18;;;;;;;31.77;17.80;;;;;;;-5.90;100.00;93520.88;2096647;28;20974;-85
2021/12/22 03:45:19;;;;;;;36.63;18.35;;;;;;;-5.89;100.00;93521.66;2092859;28;20447;-88
2021/12/22 03:46:20;;;;;;;32.88;19.20;;;;;;;-5.86;100.00;93521.06;2097249;28;20979;-87
2021/12/22 03:47:21;;;;;;;36.60;20.60;;;;;;;-5.98;100.00;93519.06;2101218;28;20459;-86
2021/12/22 03:48:24;;;;;;;34.28;20.20;;;;;;;-6.03;100.00;93518.44;2093295;28;20058;-86
2021/12/22 03:49:26;;;;;;;28.58;17.50;;;;;;;-5.95;100.00;93520.31;2088882;28;20789;-87
2021/12/22 03:50:27;;;;;;;34.15;18.63;;;;;;;-5.94;100.00;93519.22;2081417;28;21123;-88
2021/12/22 03:51:28;;;;;;;30.92;18.48;;;;;;;-5.95;100.00;93509.88;2084705;28;20452;-86
2021/12/22 03:52:29;;;;;;;30.13;18.95;;;;;;;-5.95;100.00;93512.50;2093872;28;20024;-87
2021/12/22 03:53:30;;;;;;;29.77;18.13;;;;;;;-5.83;100.00;93508.22;2100251;28;20036;-87
2021/12/22 03:54:31;;;;;;;31.65;17.50;;;;;;;-5.83;100.00;93510.81;2097298;28;20492;-86
2021/12/22 03:55:32;;;;;;;34.00;19.13;;;;;;;-6.01;100.00;93516.28;2096990;28;20028;-86
2021/12/22 03:56:33;;;;;;;29.83;18.13;;;;;;;-5.86;100.00;93514.00;2097206;28;20058;-86
2021/12/22 03:57:34;;;;;;;35.45;20.30;;;;;;;-5.94;100.00;93506.22;2089047;28;20021;-86
2021/12/22 03:58:36;;;;;;;33.70;21.05;;;;;;;-5.89;100.00;93517.22;2097186;28;20447;-87
2021/12/22 03:59:37;;;;;;;36.78;19.70;;;;;;;-5.85;100.00;93515.53;2103356;28;20709;-86
2021/12/22 04:00:39;;;;;;;32.33;19.42;;;;;;;-5.97;100.00;93518.00;2095538;28;20530;-85
2021/12/22 04:01:40;;;;;;;34.35;19.73;;;;;;;-5.68;100.00;93511.44;2104137;28;20469;-87
2021/12/22 04:02:42;;;;;;;32.67;18.48;;;;;;;-5.70;100.00;93509.16;2097061;28;20473;-87
2021/12/22 04:03:46;;;;;;;33.58;19.70;;;;;;;-5.78;100.00;93515.09;2084988;28;20458;-87
2021/12/22 04:04:50;;;;;;;35.92;19.38;;;;;;;-5.88;100.00;93521.38;2084911;28;20460;-88
2021/12/22 04:05:54;;;;;;;33.63;18.10;;;;;;;-5.85;100.00;93517.38;2089049;28;20470;-85
2021/12/22 04:06:55;;;;;;;33.17;18.08;;;;;;;-5.95;100.00;93509.88;2089684;28;20868;-87
2021/12/22 04:07:57;;;;;;;28.80;17.75;;;;;;;-5.94;100.00;93519.22;2101038;28;20458;-85
2021/12/22 04:08:58;;;;;;;37.50;18.65;;;;;;;-5.89;100.00;93521.66;2110014;28;20028;-84
2021/12/22 04:09:59;;;;;;;33.58;19.92;;;;;;;-5.73;100.00;93509.00;2101091;28;20433;-86
2021/12/22 04:11:00;;;;;;;33.85;19.55;;;;;;;-5.78;100.00;93519.56;2088997;28;20033;-86
2021/12/22 04:12:01;;;;;;;31.63;18.48;;;;;;;-5.65;100.00;93526.47;2096961;28;20454;-87
2021/12/22 04:13:03;;;;;;;32.85;20.67;;;;;;;-5.73;100.00;93519.41;2092803;28;20464;-85
2021/12/22 04:14:05;;;;;;;32.53;19.73;;;;;;;-5.65;100.00;93523.88;2093426;28;20451;-86
2021/12/22 04:15:10;;;;;;;32.17;19.42;;;;;;;-5.70;100.00;93527.38;2097281;28;20875;-84
2021/12/22 04:16:13;;;;;;;28.88;19.08;;;;;;;-5.70;100.00;93526.63;2097439;28;20481;-84
2021/12/22 04:17:14;;;;;;;31.50;19.50;;;;;;;-5.75;100.00;93511.13;2097256;28;20439;-88
2021/12/22 04:18:16;;;;;;;35.03;18.58;;;;;;;-5.63;100.00;93512.06;2083808;28;20518;-86
2021/12/22 04:19:17;;;;;;;30.33;18.35;;;;;;;-5.71;100.00;93525.81;2088327;28;20029;-86
2021/12/22 04:20:19;;;;;;;33.42;18.80;;;;;;;-5.72;100.00;93523.53;2096860;28;20446;-87
2021/12/22 04:21:20;;;;;;;29.67;18.35;;;;;;;-5.65;100.00;93524.63;2085156;28;20025;-86
2021/12/22 04:22:21;;;;;;;30.17;18.58;;;;;;;-5.75;100.00;93524.13;2080385;28;20455;-86
2021/12/22 04:23:22;;;;;;;30.92;18.88;;;;;;;-5.63;100.00;93522.47;2080485;28;21038;-87
2021/12/22 04:24:23;;;;;;;32.88;19.02;;;;;;;-5.64;100.00;93520.19;2080059;28;20535;-85
2021/12/22 04:25:24;;;;;;;27.92;17.80;;;;;;;-5.64;100.00;93517.59;2080377;28;20456;-86
2021/12/22 04:26:27;;;;;;;31.00;19.05;;;;;;;-5.74;100.00;93520.47;2080676;28;20463;-86
2021/12/22 04:27:29;;;;;;;31.83;18.50;;;;;;;-5.57;100.00;93526.47;2081687;28;20570;-85
2021/12/22 04:28:30;;;;;;;28.83;17.90;;;;;;;-5.70;100.00;93521.41;2089746;28;20459;-85
2021/12/22 04:29:31;;;;;;;30.42;18.98;;;;;;;-5.84;100.00;93522.31;2086475;28;20534;-85
2021/12/22 04:30:39;;;;;;;26.95;17.13;;;;;;;-5.82;100.00;93530.56;2081614;28;20394;-86
2021/12/22 04:31:40;;;;;;;28.02;18.48;;;;;;;-5.70;100.00;93522.19;2083442;28;20514;-86
2021/12/22 04:32:46;;;;;;;29.00;19.35;;;;;;;-5.75;100.00;93524.94;2089519;28;20456;-86
2021/12/22 04:33:47;;;;;;;27.63;17.70;;;;;;;-5.58;100.00;93534.59;2096949;28;20454;-87
2021/12/22 04:34:49;;;;;;;27.77;17.33;;;;;;;-5.53;100.00;93525.84;2096887;28;20442;-88
2021/12/22 04:35:55;;;;;;;30.63;19.33;;;;;;;-5.49;100.00;93527.53;2096846;28;20455;-86
2021/12/22 04:36:56;;;;;;;34.70;19.00;;;;;;;-5.44;100.00;93530.03;2094406;28;20670;-88
2021/12/22 04:37:58;;;;;;;30.52;17.88;;;;;;;-5.50;100.00;93531.22;2105030;28;21002;-87
2021/12/22 04:38:59;;;;;;;28.52;17.20;;;;;;;-5.48;100.00;93523.13;2085422;28;20975;-86
2021/12/22 04:40:00;;;;;;;31.55;18.55;;;;;;;-5.68;100.00;93524.47;2084468;28;20463;-87
2021/12/22 04:41:01;;;;;;;29.48;18.25;;;;;;;-5.68;100.00;93524.47;2085968;28;20491;-87
2021/12/22 04:42:03;;;;;;;33.88;19.33;;;;;;;-5.70;100.00;93522.19;2088646;28;20476;-85
2021/12/22 04:43:04;;;;;;;34.45;19.50;;;;;;;-5.67;100.00;93521.53;2088481;28;20463;-87
2021/12/22 04:44:05;;;;;;;31.80;18.95;;;;;;;-5.57;100.00;93523.13;2088328;28;20455;-87
2021/12/22 04:45:08;;;;;;;28.98;18.13;;;;;;;-5.62;100.00;93518.81;2086542;28;20518;-87
2021/12/22 04:46:09;;;;;;;30.48;19.13;;;;;;;-5.66;100.00;93520.50;2088463;28;20518;-86
2021/12/22 04:47:10;;;;;;;34.65;20.80;;;;;;;-5.75;100.00;93516.31;2087068;28;20514;-86
2021/12/22 04:48:11;;;;;;;33.85;19.75;;;;;;;-5.77;100.00;93514.03;2088471;28;20033;-86
2021/12/22 04:49:12;;;;;;;29.30;16.75;;;;;;;-5.77;100.00;93515.88;2091564;28;20047;-87
2021/12/22 04:50:17;;;;;;;31.77;18.52;;;;;;;-5.78;100.00;93511.75;2092711;28;20466;-85
2021/12/22 04:51:29;;;;;;;28.98;16.88;;;;;;;-5.78;100.00;93511.75;2087601;28;20036;-86
2021/12/22 04:52:39;;;;;;;26.50;17.70;;;;;;;-5.68;100.00;93514.81;2090231;28;20447;-87
2021/12/22 04:53:51;;;;;;;31.00;18.73;;;;;;;-5.93;100.00;93508.50;2091358;28;21035;-86
2021/12/22 04:55:04;;;;;;;29.75;18.42;;;;;;;-5.80;100.00;93519.06;2102455;28;20060;-86
2021/12/22 04:56:05;;;;;;;31.52;19.08;;;;;;;-5.91;100.00;93510.78;2097132;28;21092;-87
2021/12/22 04:57:06;;;;;;;35.22;20.02;;;;;;;-5.81;100.00;93515.69;2096183;28;20463;-86
2021/12/22 04:58:09;;;;;;;32.97;19.58;;;;;;;-5.81;100.00;93505.28;2096391;28;20098;-87
2021/12/22 04:59:10;;;;;;;32.78;19.23;;;;;;;-5.70;100.00;93506.56;2088049;28;20083;-86
2021/12/22 05:00:15;;;;;;;30.88;18.65;;;;;;;-5.66;100.00;93498.91;2078856;28;20456;-87
2021/12/22 05:01:16;;;;;;;32.92;18.52;;;;;;;-5.69;100.00;93492.47;2097305;28;20440;-86
2021/12/22 05:02:17;;;;;;;36.55;19.25;;;;;;;-5.78;100.00;93502.09;2095609;28;20822;-87
2021/12/22 05:03:18;;;;;;;32.63;18.48;;;;;;;-5.99;100.00;93503.75;2096167;28;20024;-87
2021/12/22 05:04:18;;;;;;;30.30;19.15;;;;;;;-5.97;100.00;93505.00;2096143;28;20504;-88
2021/12/22 05:05:20;;;;;;;33.40;19.45;;;;;;;-5.86;100.00;93495.78;2087053;28;20029;-88
2021/12/22 05:06:20;;;;;;;34.22;19.92;;;;;;;-5.98;100.00;93492.28;2096470;28;20013;-86